Time;durP1;ratioP1;P1;durP2;ratioP2;P2;SDS_P1;SDS_P2;PMS_P1;PMS_P2;Temp;Humidity;BMP_temperature;BMP_pressure;BME280_temperature;BME280_humidity;BME280_pressure;Samples;Min_cycle;Max_cycle;Signal;HPM_P1;HPM_P2
2022/01/11 00:00:38;;;;;;;19.20;9.95;;;3.90;80.40;;;;;;4977714;28;20030;-68
2022/01/11 00:03:05;;;;;;;18.20;10.40;;;3.90;80.40;;;;;;4977473;28;20544;-68
2022/01/11 00:05:37;;;;;;;19.75;9.95;;;3.90;80.40;;;;;;4977338;28;20047;-67
2022/01/11 00:08:04;;;;;;;18.50;9.57;;;4.00;80.40;;;;;;4978163;28;20449;-68
2022/01/11 00:10:38;;;;;;;17.35;9.65;;;4.00;80.30;;;;;;4976405;28;20038;-69
2022/01/11 00:13:04;;;;;;;18.05;10.00;;;3.90;80.20;;;;;;4977997;28;20481;-69
2022/01/11 00:15:30;;;;;;;15.63;9.63;;;4.00;80.20;;;;;;4977385;28;20494;-68
2022/01/11 00:17:57;;;;;;;19.45;9.25;;;3.90;80.10;;;;;;4977420;28;20042;-68
2022/01/11 00:20:26;;;;;;;19.17;9.52;;;4.00;80.20;;;;;;4979495;28;20049;-68
2022/01/11 00:25:32;;;;;;;16.17;9.05;;;4.00;80.40;;;;;;4977095;28;20398;-68
2022/01/11 00:27:58;;;;;;;17.60;9.07;;;4.00;80.40;;;;;;4977891;28;20030;-68
2022/01/11 00:30:30;;;;;;;17.70;9.30;;;4.00;80.30;;;;;;4977231;28;20077;-68
2022/01/11 00:32:58;;;;;;;20.58;9.68;;;4.00;80.30;;;;;;4977108;28;20520;-69
2022/01/11 00:35:28;;;;;;;16.77;9.63;;;4.00;80.30;;;;;;4978092;28;20062;-69
2022/01/11 00:37:54;;;;;;;17.52;9.32;;;4.00;80.40;;;;;;4976005;28;20080;-68
2022/01/11 00:40:21;;;;;;;17.25;9.45;;;4.00;80.40;;;;;;4977913;28;20054;-69
2022/01/11 00:42:46;;;;;;;18.90;9.35;;;4.00;80.40;;;;;;4976409;28;20034;-67
2022/01/11 00:45:13;;;;;;;18.23;9.38;;;4.00;80.40;;;;;;4977608;28;20041;-68
2022/01/11 00:47:39;;;;;;;18.73;9.52;;;4.00;80.60;;;;;;4978537;28;20030;-68
2022/01/11 00:50:06;;;;;;;19.38;9.75;;;4.00;80.60;;;;;;4976487;28;20039;-69
2022/01/11 00:52:32;;;;;;;19.58;9.90;;;4.00;80.60;;;;;;4976190;28;20037;-67
2022/01/11 00:54:57;;;;;;;17.60;10.00;;;4.00;80.70;;;;;;4976929;28;20038;-68
2022/01/11 00:57:23;;;;;;;18.52;10.27;;;4.00;80.70;;;;;;4976497;28;20035;-69
2022/01/11 00:59:49;;;;;;;18.15;10.32;;;4.00;80.80;;;;;;4976632;28;20045;-68
2022/01/11 01:02:15;;;;;;;21.60;10.07;;;4.00;80.80;;;;;;4976666;28;20030;-68
2022/01/11 01:04:40;;;;;;;22.58;10.38;;;4.00;80.90;;;;;;4975849;28;20030;-68
2022/01/11 01:07:06;;;;;;;23.05;10.65;;;4.00;80.90;;;;;;4977865;28;20038;-69
2022/01/11 01:09:44;;;;;;;18.50;10.80;;;4.00;80.90;;;;;;4975917;28;20138;-67
2022/01/11 01:12:10;;;;;;;18.45;9.98;;;4.10;81.00;;;;;;4976559;28;20391;-68
2022/01/11 01:14:35;;;;;;;18.63;10.43;;;4.00;80.90;;;;;;4976562;28;20035;-69
2022/01/11 01:17:01;;;;;;;22.25;10.85;;;4.00;81.10;;;;;;4978286;28;20125;-68
2022/01/11 01:19:27;;;;;;;18.90;10.40;;;4.00;81.10;;;;;;4978209;28;20053;-69
2022/01/11 01:21:55;;;;;;;22.88;11.40;;;4.00;81.20;;;;;;4977429;28;20069;-69
2022/01/11 01:24:21;;;;;;;21.55;10.75;;;4.10;81.30;;;;;;4977126;28;20054;-68
2022/01/11 01:26:47;;;;;;;19.60;10.57;;;4.10;81.30;;;;;;4978784;28;20034;-69
2022/01/11 01:29:13;;;;;;;22.13;10.95;;;4.10;81.30;;;;;;4979009;28;20038;-68
2022/01/11 01:31:39;;;;;;;18.08;10.57;;;4.10;81.30;;;;;;4976518;28;20133;-68
2022/01/11 01:34:06;;;;;;;23.00;10.57;;;4.10;81.30;;;;;;4975842;28;20066;-67
2022/01/11 01:36:32;;;;;;;17.15;10.65;;;4.10;81.30;;;;;;4975292;28;20470;-68
2022/01/11 01:38:58;;;;;;;18.95;10.70;;;4.10;81.30;;;;;;4979355;28;20030;-68
2022/01/11 01:41:24;;;;;;;21.05;10.52;;;4.10;81.30;;;;;;4980420;28;20031;-68
2022/01/11 01:43:53;;;;;;;22.55;10.90;;;4.10;81.40;;;;;;4981843;28;20030;-68
2022/01/11 01:46:20;;;;;;;18.88;10.82;;;4.10;81.40;;;;;;4981569;28;20030;-68
2022/01/11 01:48:46;;;;;;;18.38;10.90;;;4.10;81.50;;;;;;4980294;28;20027;-68
2022/01/11 01:51:12;;;;;;;19.13;11.45;;;4.10;81.50;;;;;;4980409;28;20033;-69
2022/01/11 01:53:42;;;;;;;21.80;11.82;;;4.10;81.60;;;;;;4980218;28;20030;-68
2022/01/11 01:56:08;;;;;;;19.80;10.82;;;4.10;81.70;;;;;;4979606;28;20035;-69
2022/01/11 01:58:33;;;;;;;21.73;11.15;;;4.10;81.70;;;;;;4980899;28;20085;-69
2022/01/11 02:01:03;;;;;;;19.25;10.95;;;4.10;81.70;;;;;;4983671;28;20089;-69
2022/01/11 02:03:38;;;;;;;22.38;12.18;;;4.10;81.60;;;;;;4981570;28;20034;-68
2022/01/11 02:06:05;;;;;;;;;;;4.10;81.60;;;;;;4981903;28;20744;-69
2022/01/11 02:08:31;;;;;;;20.55;11.18;;;4.20;82.00;;;;;;4980645;28;19922;-68
2022/01/11 02:10:57;;;;;;;22.55;11.40;;;4.10;81.30;;;;;;4981990;28;20033;-68
2022/01/11 02:13:23;;;;;;;20.88;11.23;;;4.10;81.40;;;;;;4981082;28;21399;-69
2022/01/11 02:15:50;;;;;;;21.98;11.63;;;4.10;81.40;;;;;;4979900;28;20034;-68
2022/01/11 02:18:21;;;;;;;22.17;11.65;;;4.10;81.40;;;;;;4980554;28;20950;-68
2022/01/11 02:20:49;;;;;;;25.27;11.98;;;4.10;81.60;;;;;;4979344;28;20042;-69
2022/01/11 02:23:17;;;;;;;23.60;11.98;;;4.10;81.60;;;;;;4979801;28;20027;-69
2022/01/11 02:25:43;;;;;;;24.48;11.90;;;4.10;81.70;;;;;;4981323;28;20034;-68
2022/01/11 02:28:13;;;;;;;22.52;12.23;;;4.10;81.80;;;;;;4981369;28;20054;-68
2022/01/11 02:30:39;;;;;;;20.45;11.90;;;4.10;82.70;;;;;;4979348;28;20031;-67
2022/01/11 02:33:10;;;;;;;24.90;11.45;;;4.10;82.00;;;;;;4980653;28;20038;-69
2022/01/11 02:35:36;;;;;;;26.60;12.80;;;4.10;82.00;;;;;;4980429;28;20391;-68
2022/01/11 02:38:02;;;;;;;21.95;11.75;;;4.10;82.80;;;;;;4981763;28;20054;-70
2022/01/11 02:40:27;;;;;;;23.58;12.88;;;4.10;82.00;;;;;;4977843;28;20403;-69
2022/01/11 02:42:53;;;;;;;23.48;12.00;;;4.10;82.00;;;;;;4980643;28;20109;-69
2022/01/11 02:45:21;;;;;;;21.38;11.75;;;4.10;82.00;;;;;;4979840;28;20031;-68
2022/01/11 02:47:48;;;;;;;25.25;12.98;;;4.10;82.00;;;;;;4979793;28;20058;-69
2022/01/11 02:50:15;;;;;;;21.60;12.32;;;4.10;82.00;;;;;;4978913;28;20572;-68
2022/01/11 02:52:41;;;;;;;24.30;12.13;;;4.10;82.00;;;;;;4979945;28;20038;-68
2022/01/11 02:55:10;;;;;;;20.13;12.25;;;4.10;82.00;;;;;;4979707;28;20035;-69
2022/01/11 02:57:36;;;;;;;26.55;13.75;;;4.10;82.10;;;;;;4979219;28;20037;-69
2022/01/11 03:00:11;;;;;;;21.40;12.40;;;4.10;82.10;;;;;;4979628;28;20030;-69
2022/01/11 03:02:37;;;;;;;22.58;11.63;;;4.10;82.00;;;;;;4979771;28;20686;-69
2022/01/11 03:05:08;;;;;;;22.67;12.50;;;4.10;82.00;;;;;;4979634;28;20169;-69
2022/01/11 03:07:34;;;;;;;23.73;12.73;;;4.10;82.10;;;;;;4981591;28;20117;-69
2022/01/11 03:12:25;;;;;;;22.63;12.43;;;4.20;82.10;;;;;;4980521;28;20514;-69
2022/01/11 03:14:51;;;;;;;25.30;13.02;;;4.10;82.10;;;;;;4979411;28;20094;-68
2022/01/11 03:17:17;;;;;;;24.17;12.98;;;4.10;82.10;;;;;;4979920;28;20034;-69
2022/01/11 03:19:42;;;;;;;22.55;12.57;;;4.20;82.10;;;;;;4979589;28;20027;-69
2022/01/11 03:22:08;;;;;;;22.77;12.88;;;4.20;82.10;;;;;;4978758;28;20084;-68
2022/01/11 03:24:33;;;;;;;22.92;13.02;;;4.10;82.10;;;;;;4978938;28;20082;-68
2022/01/11 03:26:59;;;;;;;26.17;12.95;;;4.20;82.10;;;;;;4979359;28;20035;-69
2022/01/11 03:29:25;;;;;;;21.40;12.77;;;4.10;82.10;;;;;;4979412;28;20042;-69
2022/01/11 03:31:51;;;;;;;22.83;12.25;;;4.20;82.10;;;;;;4979468;28;20031;-69
2022/01/11 03:34:19;;;;;;;23.23;12.25;;;4.20;82.10;;;;;;4978985;28;20066;-69
2022/01/11 03:36:45;;;;;;;24.45;12.93;;;4.20;82.10;;;;;;4978954;28;20156;-69
2022/01/11 03:39:11;;;;;;;21.98;11.80;;;4.20;82.10;;;;;;4978304;28;20034;-70
2022/01/11 03:41:37;;;;;;;26.48;13.25;;;4.20;82.20;;;;;;4980214;28;20035;-68
2022/01/11 03:44:03;;;;;;;25.35;13.50;;;4.20;82.10;;;;;;4979399;28;20505;-69
2022/01/11 03:46:29;;;;;;;26.50;13.50;;;4.20;82.10;;;;;;4978412;28;20030;-70
2022/01/11 03:48:55;;;;;;;27.75;13.80;;;4.20;82.10;;;;;;4977225;28;20582;-68
2022/01/11 03:51:20;;;;;;;26.90;13.15;;;4.20;82.10;;;;;;4977303;28;20058;-69
2022/01/11 03:53:55;;;;;;;26.67;13.55;;;4.20;82.20;;;;;;4977504;28;20058;-67
2022/01/11 03:56:23;;;;;;;24.55;13.38;;;4.20;82.10;;;;;;4979089;28;20058;-68
2022/01/11 03:58:50;;;;;;;28.13;14.02;;;4.20;82.10;;;;;;4978750;28;20046;-68
2022/01/11 04:01:17;;;;;;;23.55;14.02;;;4.20;82.10;;;;;;4978140;28;20046;-69
2022/01/11 04:03:44;;;;;;;23.20;13.32;;;4.20;82.10;;;;;;4979524;28;20057;-69
2022/01/11 04:06:10;;;;;;;25.73;13.98;;;4.20;82.10;;;;;;4979283;28;20598;-68
2022/01/11 04:08:35;;;;;;;29.33;14.88;;;4.20;82.20;;;;;;4978283;28;20037;-66
2022/01/11 04:11:02;;;;;;;28.65;14.30;;;4.20;82.20;;;;;;4978877;28;20035;-68
2022/01/11 04:13:27;;;;;;;30.08;14.13;;;4.20;82.30;;;;;;4977316;28;20042;-70
2022/01/11 04:15:53;;;;;;;26.85;13.65;;;4.20;82.30;;;;;;4978064;28;20037;-69
2022/01/11 04:18:18;;;;;;;30.23;14.60;;;4.20;82.30;;;;;;4977489;28;20759;-69
2022/01/11 04:20:44;;;;;;;30.00;15.05;;;4.20;82.30;;;;;;4978147;28;20050;-69
2022/01/11 04:23:12;;;;;;;28.00;14.75;;;4.20;82.30;;;;;;4977868;28;20135;-68
2022/01/11 04:25:38;;;;;;;33.85;15.27;;;4.20;82.30;;;;;;4977096;28;20035;-69
2022/01/11 04:28:04;;;;;;;30.50;15.00;;;4.20;82.20;;;;;;4978540;28;20050;-68
2022/01/11 04:30:30;;;;;;;29.02;15.05;;;4.20;82.10;;;;;;4976914;28;20038;-69
2022/01/11 04:32:55;;;;;;;27.05;15.48;;;4.20;82.20;;;;;;4979263;28;20529;-69
2022/01/11 04:35:21;;;;;;;29.20;14.88;;;4.30;82.30;;;;;;4976986;28;20053;-68
2022/01/11 04:37:47;;;;;;;28.20;15.88;;;4.30;82.30;;;;;;4977367;28;20046;-69
2022/01/11 04:40:14;;;;;;;34.67;16.95;;;4.30;82.30;;;;;;4978553;28;20027;-68
2022/01/11 04:42:40;;;;;;;31.67;16.83;;;4.30;82.20;;;;;;4977978;28;20030;-69
2022/01/11 04:45:07;;;;;;;29.52;15.93;;;4.30;82.10;;;;;;4978307;28;20448;-69
2022/01/11 04:47:33;;;;;;;34.53;16.67;;;4.20;82.00;;;;;;4978579;28;20442;-69
2022/01/11 04:49:58;;;;;;;30.65;16.90;;;4.20;82.10;;;;;;4976041;28;20045;-68
2022/01/11 04:52:24;;;;;;;47.42;22.08;;;4.20;82.10;;;;;;4978233;28;20026;-68
2022/01/11 04:54:50;;;;;;;43.95;21.75;;;4.20;82.10;;;;;;4976779;28;20027;-68
2022/01/11 04:57:15;;;;;;;35.30;18.55;;;4.20;82.10;;;;;;4978534;28;20042;-69
2022/01/11 04:59:41;;;;;;;33.67;18.63;;;4.20;82.10;;;;;;4976961;28;20061;-69
2022/01/11 05:02:06;;;;;;;41.35;19.75;;;4.20;82.10;;;;;;4977794;28;20649;-68
2022/01/11 05:04:32;;;;;;;39.53;20.15;;;4.20;82.20;;;;;;4974998;28;20038;-68
2022/01/11 05:06:58;;;;;;;36.63;19.63;;;4.20;82.20;;;;;;4977360;28;20026;-68
2022/01/11 05:09:24;;;;;;;41.05;20.77;;;4.20;82.30;;;;;;4975937;28;20034;-68
2022/01/11 05:11:50;;;;;;;34.60;18.80;;;4.20;82.30;;;;;;4977793;28;20537;-67
2022/01/11 05:14:16;;;;;;;30.42;17.23;;;4.20;82.30;;;;;;4973625;28;20039;-69
2022/01/11 05:16:42;;;;;;;34.95;18.05;;;4.20;82.30;;;;;;4978178;28;20034;-67
2022/01/11 05:19:12;;;;;;;31.55;16.52;;;4.20;82.30;;;;;;4976811;28;20034;-68
2022/01/11 05:21:41;;;;;;;30.60;18.10;;;4.20;82.40;;;;;;4977924;28;20030;-69
2022/01/11 05:24:09;;;;;;;33.08;18.30;;;4.20;82.30;;;;;;4977580;28;20027;-68
2022/01/11 05:26:35;;;;;;;36.55;19.95;;;4.20;82.30;;;;;;4976211;28;20042;-69
2022/01/11 05:29:01;;;;;;;30.30;17.05;;;4.20;82.30;;;;;;4974207;28;20034;-69
2022/01/11 05:31:27;;;;;;;33.38;16.90;;;4.20;82.30;;;;;;4963564;28;20505;-68
2022/01/11 05:33:52;;;;;;;35.33;16.35;;;4.20;82.30;;;;;;4977094;28;20386;-68
2022/01/11 05:36:19;;;;;;;30.65;15.52;;;4.20;82.30;;;;;;4977058;28;20085;-68
2022/01/11 05:38:45;;;;;;;26.80;15.88;;;4.20;82.30;;;;;;4975796;28;20133;-69
2022/01/11 05:41:11;;;;;;;30.40;15.68;;;4.20;82.30;;;;;;4978224;28;20174;-69
2022/01/11 05:43:36;;;;;;;30.30;15.23;;;4.20;82.30;;;;;;4974757;28;20039;-69
2022/01/11 05:46:03;;;;;;;31.10;15.60;;;4.20;82.30;;;;;;4977528;28;20473;-69
2022/01/11 05:48:32;;;;;;;32.85;15.57;;;4.20;82.30;;;;;;4976847;28;20042;-69
2022/01/11 05:50:58;;;;;;;26.75;14.32;;;4.20;82.30;;;;;;4977755;28;20038;-69
2022/01/11 05:53:24;;;;;;;30.77;15.65;;;4.20;82.30;;;;;;4978083;28;20414;-68
2022/01/11 05:55:50;;;;;;;28.50;16.05;;;4.30;82.40;;;;;;4976695;28;20027;-68
2022/01/11 05:58:15;;;;;;;28.88;15.88;;;4.20;82.30;;;;;;4977773;28;20042;-69
2022/01/11 06:00:41;;;;;;;30.60;15.88;;;4.20;83.00;;;;;;4977209;28;20065;-68
2022/01/11 06:03:07;;;;;;;28.13;15.45;;;4.20;82.10;;;;;;4977775;28;20439;-66
2022/01/11 06:05:38;;;;;;;28.33;15.30;;;4.20;82.20;;;;;;4978311;28;20029;-68
2022/01/11 06:08:07;;;;;;;27.52;15.05;;;4.20;82.20;;;;;;4976935;28;20105;-68
2022/01/11 06:10:32;;;;;;;28.98;15.80;;;4.20;82.10;;;;;;4977670;28;20034;-68
2022/01/11 06:12:58;;;;;;;27.73;15.18;;;4.20;82.10;;;;;;4978398;28;20042;-68
2022/01/11 06:15:24;;;;;;;29.48;15.52;;;4.20;82.10;;;;;;4977771;28;20498;-68
2022/01/11 06:17:50;;;;;;;32.33;16.05;;;4.20;82.20;;;;;;4978053;28;20074;-68
2022/01/11 06:20:16;;;;;;;30.45;16.17;;;4.20;82.20;;;;;;4977436;28;20034;-68
2022/01/11 06:22:42;;;;;;;32.10;15.82;;;4.10;82.20;;;;;;4980505;28;20038;-69
2022/01/11 06:25:09;;;;;;;28.67;15.23;;;4.20;82.30;;;;;;4980611;28;20035;-68
2022/01/11 06:27:39;;;;;;;28.48;14.88;;;4.10;82.30;;;;;;4982379;28;20561;-68
2022/01/11 06:30:09;;;;;;;30.35;14.75;;;4.20;82.50;;;;;;4980913;28;20066;-68
2022/01/11 06:32:36;;;;;;;28.80;14.82;;;4.10;82.50;;;;;;4981807;28;20049;-68
2022/01/11 06:35:02;;;;;;;32.20;14.90;;;4.10;82.50;;;;;;4980610;28;20027;-68
2022/01/11 06:37:28;;;;;;;32.72;14.98;;;4.10;82.40;;;;;;4980652;28;20042;-68
2022/01/11 06:39:54;;;;;;;27.38;15.18;;;4.10;82.40;;;;;;4982615;28;20380;-68
2022/01/11 06:42:19;;;;;;;27.65;15.27;;;4.20;82.50;;;;;;4981874;28;20058;-68
2022/01/11 06:44:45;;;;;;;28.70;16.08;;;4.10;82.40;;;;;;4978231;28;20033;-68
2022/01/11 06:47:11;;;;;;;29.10;15.25;;;4.20;82.50;;;;;;4977531;28;20125;-68
2022/01/11 06:49:37;;;;;;;31.33;16.77;;;4.20;82.50;;;;;;4978132;28;20121;-68
2022/01/11 06:52:03;;;;;;;30.92;16.15;;;4.20;82.40;;;;;;4977068;28;20113;-67
2022/01/11 06:54:29;;;;;;;31.73;16.20;;;4.20;82.40;;;;;;4979676;28;20043;-69
2022/01/11 06:56:58;;;;;;;33.42;17.20;;;4.20;82.50;;;;;;4980435;28;20402;-68
2022/01/11 06:59:23;;;;;;;32.20;17.70;;;4.10;82.30;;;;;;4978322;28;20406;-68
2022/01/11 07:01:50;;;;;;;34.08;18.48;;;4.20;82.40;;;;;;4981108;28;20089;-68
2022/01/11 07:04:15;;;;;;;44.45;20.17;;;4.10;82.30;;;;;;4981233;28;20030;-69
2022/01/11 07:06:41;;;;;;;32.70;17.73;;;4.10;82.30;;;;;;4980187;28;20034;-69
2022/01/11 07:09:07;;;;;;;33.15;17.83;;;4.10;82.30;;;;;;4983545;28;20410;-68
2022/01/11 07:11:33;;;;;;;31.15;16.52;;;4.10;82.30;;;;;;4979815;28;20038;-69
2022/01/11 07:14:02;;;;;;;31.00;17.70;;;4.10;82.30;;;;;;4980573;28;20033;-68
2022/01/11 07:16:27;;;;;;;27.88;16.35;;;4.10;82.30;;;;;;4980331;28;20529;-68
2022/01/11 07:18:53;;;;;;;32.55;17.38;;;4.10;82.30;;;;;;4978974;28;20069;-69
2022/01/11 07:21:18;;;;;;;31.60;17.13;;;4.10;82.30;;;;;;4980120;28;20069;-69
2022/01/11 07:23:44;;;;;;;32.63;17.02;;;4.10;82.30;;;;;;4980962;28;20498;-68
2022/01/11 07:26:10;;;;;;;32.65;17.05;;;4.10;82.30;;;;;;4981112;28;20586;-68
2022/01/11 07:28:36;;;;;;;29.15;16.30;;;4.10;82.30;;;;;;4979878;28;20418;-66
2022/01/11 07:31:02;;;;;;;25.80;15.60;;;4.10;82.30;;;;;;4980007;28;20048;-69
2022/01/11 07:33:27;;;;;;;29.85;15.85;;;4.10;82.30;;;;;;4980555;28;20061;-69
2022/01/11 07:35:53;;;;;;;29.55;15.52;;;4.10;82.30;;;;;;4979660;28;20026;-68
2022/01/11 07:38:19;;;;;;;33.38;16.80;;;4.10;82.40;;;;;;4981518;28;20089;-68
2022/01/11 07:40:45;;;;;;;31.17;16.90;;;4.10;82.40;;;;;;4980313;28;20494;-69
2022/01/11 07:43:10;;;;;;;33.72;16.98;;;4.10;83.00;;;;;;4979355;28;20105;-68
2022/01/11 07:45:36;;;;;;;31.73;16.33;;;4.10;82.50;;;;;;4978010;28;20411;-67
2022/01/11 07:48:02;;;;;;;32.05;16.38;;;4.10;82.50;;;;;;4979698;28;20470;-68
2022/01/11 07:50:28;;;;;;;34.47;16.40;;;4.10;82.40;;;;;;4979078;28;20441;-69
2022/01/11 07:52:53;;;;;;;29.63;16.20;;;4.10;82.50;;;;;;4979800;28;20046;-68
2022/01/11 07:55:19;;;;;;;30.13;16.05;;;4.20;83.30;;;;;;4980293;28;20042;-68
2022/01/11 07:57:45;;;;;;;31.40;16.45;;;4.20;82.50;;;;;;4979705;28;20046;-69
2022/01/11 08:00:12;;;;;;;28.17;15.50;;;4.20;82.50;;;;;;4979432;28;20027;-69
2022/01/11 08:02:37;;;;;;;29.35;15.65;;;4.20;83.30;;;;;;4977455;28;20079;-69
2022/01/11 08:05:05;;;;;;;27.33;15.55;;;4.20;82.50;;;;;;4979620;28;20653;-68
2022/01/11 08:07:31;;;;;;;27.48;15.68;;;4.20;82.50;;;;;;4975662;28;20071;-69
2022/01/11 08:09:56;;;;;;;29.67;16.27;;;4.20;82.50;;;;;;4975922;28;20046;-68
2022/01/11 08:12:22;;;;;;;30.65;16.35;;;4.20;82.50;;;;;;4972512;28;20035;-68
2022/01/11 08:14:48;;;;;;;29.00;16.08;;;4.20;82.50;;;;;;4979369;28;20042;-69
2022/01/11 08:17:15;;;;;;;30.15;15.13;;;4.20;82.50;;;;;;4979598;28;20257;-69
2022/01/11 08:19:44;;;;;;;31.48;16.17;;;4.20;82.60;;;;;;4980098;28;20085;-69
2022/01/11 08:22:10;;;;;;;32.78;16.55;;;4.20;82.60;;;;;;4981846;28;20589;-67
2022/01/11 08:24:38;;;;;;;29.80;16.25;;;4.30;82.50;;;;;;4980592;28;20031;-68
2022/01/11 08:27:04;;;;;;;29.77;17.02;;;4.30;82.60;;;;;;4980919;28;20039;-69
2022/01/11 08:29:30;;;;;;;32.13;17.50;;;4.30;82.50;;;;;;4980731;28;20034;-69
2022/01/11 08:31:56;;;;;;;34.03;17.30;;;4.20;82.50;;;;;;4977143;28;20030;-67
2022/01/11 08:34:22;;;;;;;32.28;16.65;;;4.20;82.60;;;;;;4983301;28;20035;-69
2022/01/11 08:36:50;;;;;;;29.58;15.80;;;4.20;82.70;;;;;;4977812;28;20038;-69
2022/01/11 08:39:17;;;;;;;31.73;16.80;;;4.20;82.80;;;;;;4992358;28;20026;-68
2022/01/11 08:41:43;;;;;;;33.33;17.90;;;4.20;83.00;;;;;;4981331;28;20027;-68
2022/01/11 08:44:11;;;;;;;31.58;17.55;;;4.20;83.00;;;;;;4981638;28;20045;-67
2022/01/11 08:46:42;;;;;;;29.70;15.32;;;4.20;83.10;;;;;;4979087;28;20409;-68
2022/01/11 08:49:09;;;;;;;27.27;15.50;;;4.20;83.10;;;;;;4979524;28;20449;-68
2022/01/11 08:51:35;;;;;;;30.80;15.60;;;4.20;83.20;;;;;;4979194;28;20553;-70
2022/01/11 08:54:01;;;;;;;26.90;15.63;;;4.20;83.10;;;;;;4978406;28;20330;-69
2022/01/11 08:56:27;;;;;;;33.80;17.08;;;4.20;83.20;;;;;;4976781;28;20045;-69
2022/01/11 08:58:52;;;;;;;31.77;16.20;;;4.20;83.20;;;;;;4978033;28;20054;-69
2022/01/11 09:01:18;;;;;;;28.23;15.77;;;4.20;83.10;;;;;;4977842;28;20122;-67
2022/01/11 09:03:47;;;;;;;29.13;14.40;;;4.20;83.10;;;;;;4977187;28;20039;-68
2022/01/11 09:06:12;;;;;;;30.02;14.82;;;4.20;83.20;;;;;;4980083;28;20410;-69
2022/01/11 09:08:38;;;;;;;28.85;15.68;;;4.20;83.30;;;;;;4978740;28;20155;-68
2022/01/11 09:11:06;;;;;;;29.73;15.68;;;4.20;83.40;;;;;;4979275;28;20527;-69
2022/01/11 09:13:32;;;;;;;29.20;14.90;;;4.30;83.50;;;;;;4979252;28;20061;-69
2022/01/11 09:15:58;;;;;;;28.52;15.60;;;4.30;83.50;;;;;;4980732;28;20035;-69
2022/01/11 09:18:23;;;;;;;28.95;15.95;;;4.30;83.40;;;;;;4979067;28;20389;-68
2022/01/11 09:20:49;;;;;;;30.55;15.63;;;4.30;83.40;;;;;;4979752;28;20053;-68
2022/01/11 09:23:15;;;;;;;27.75;15.85;;;4.40;83.50;;;;;;4979282;28;20023;-69
2022/01/11 09:25:45;;;;;;;29.40;16.55;;;4.40;83.50;;;;;;4978827;28;20039;-67
2022/01/11 09:28:11;;;;;;;27.13;15.27;;;4.50;83.50;;;;;;4978045;28;20039;-69
2022/01/11 09:30:37;;;;;;;27.40;15.02;;;4.50;83.60;;;;;;4993357;28;20038;-69
2022/01/11 09:33:03;;;;;;;30.08;16.13;;;4.60;83.60;;;;;;4979441;28;20049;-69
2022/01/11 09:35:29;;;;;;;28.92;15.57;;;4.60;83.50;;;;;;4978055;28;20046;-69
2022/01/11 09:37:54;;;;;;;33.08;15.57;;;4.70;83.30;;;;;;4978485;28;20498;-69
2022/01/11 09:40:20;;;;;;;28.75;15.70;;;4.70;83.90;;;;;;4979599;28;20062;-69
2022/01/11 09:42:46;;;;;;;30.98;15.68;;;4.70;82.80;;;;;;4977864;28;20034;-68
2022/01/11 09:45:12;;;;;;;26.75;14.98;;;4.80;82.70;;;;;;4979159;28;20038;-69
2022/01/11 09:47:42;;;;;;;30.80;15.55;;;4.80;82.50;;;;;;4979556;28;20066;-69
2022/01/11 09:50:10;;;;;;;25.92;14.77;;;4.80;82.30;;;;;;4978190;28;20047;-69
2022/01/11 09:52:37;;;;;;;26.90;15.45;;;4.80;82.00;;;;;;4978788;28;20045;-70
2022/01/11 09:55:05;;;;;;;29.38;15.75;;;4.80;82.00;;;;;;4979529;28;20046;-70
2022/01/11 09:57:31;;;;;;;33.75;15.95;;;4.80;81.90;;;;;;4976525;28;20038;-68
2022/01/11 09:59:56;;;;;;;21.27;13.95;;;4.80;81.90;;;;;;4976598;28;20502;-69
2022/01/11 10:02:22;;;;;;;28.90;14.55;;;4.80;82.00;;;;;;4976479;28;20138;-68
2022/01/11 10:04:58;;;;;;;25.63;14.60;;;4.80;82.00;;;;;;4980196;28;20034;-68
2022/01/11 10:07:36;;;;;;;28.30;15.40;;;4.80;82.00;;;;;;4982930;28;20039;-69
2022/01/11 10:10:04;;;;;;;25.33;14.18;;;4.80;81.80;;;;;;4981893;28;20409;-69
2022/01/11 10:12:44;;;;;;;23.90;14.57;;;4.90;81.90;;;;;;4983175;28;20053;-69
2022/01/11 10:15:13;;;;;;;24.85;13.63;;;4.90;81.70;;;;;;4984089;28;20090;-69
2022/01/11 10:17:44;;;;;;;23.80;13.45;;;4.90;81.80;;;;;;4983949;28;20130;-69
2022/01/11 10:20:11;;;;;;;20.80;12.95;;;4.90;81.70;;;;;;4983208;28;20391;-69
2022/01/11 10:22:48;;;;;;;20.98;13.65;;;5.00;81.80;;;;;;4981853;28;20110;-67
2022/01/11 10:25:15;;;;;;;22.10;13.52;;;5.00;81.60;;;;;;4983282;28;20035;-68
2022/01/11 10:27:41;;;;;;;24.20;13.70;;;5.10;81.60;;;;;;4982875;28;20062;-69
2022/01/11 10:30:18;;;;;;;20.80;12.93;;;5.10;81.40;;;;;;4983040;28;20121;-69
2022/01/11 10:32:46;;;;;;;23.08;12.48;;;5.10;80.90;;;;;;4981640;28;20049;-68
2022/01/11 10:35:14;;;;;;;21.40;13.57;;;5.10;80.80;;;;;;4981383;28;20030;-69
2022/01/11 10:37:48;;;;;;;22.15;13.75;;;5.20;80.60;;;;;;4982907;28;20038;-69
2022/01/11 10:40:22;;;;;;;23.83;13.70;;;5.20;80.20;;;;;;4982405;28;20031;-68
2022/01/11 10:42:52;;;;;;;21.40;13.87;;;5.20;80.40;;;;;;4981822;28;20038;-69
2022/01/11 10:45:28;;;;;;;21.67;12.80;;;5.30;80.50;;;;;;4982550;28;20031;-69
2022/01/11 10:48:05;;;;;;;19.80;11.80;;;5.20;80.70;;;;;;4981800;28;20042;-69
2022/01/11 10:50:46;;;;;;;19.55;11.75;;;5.20;80.40;;;;;;4982868;28;20027;-68
2022/01/11 10:53:24;;;;;;;15.98;10.40;;;5.30;80.20;;;;;;4984923;28;20041;-68
2022/01/11 10:55:56;;;;;;;19.25;11.00;;;5.30;80.20;;;;;;4983922;28;20457;-69
2022/01/11 10:58:23;;;;;;;16.17;10.23;;;5.40;79.70;;;;;;4983549;28;20109;-66
2022/01/11 11:00:51;;;;;;;14.13;9.15;;;5.40;79.90;;;;;;4984209;28;20057;-70
2022/01/11 11:03:18;;;;;;;14.65;8.23;;;5.50;79.60;;;;;;4981531;28;20114;-69
2022/01/11 11:05:51;;;;;;;12.65;8.05;;;5.50;78.60;;;;;;4980686;28;20054;-68
2022/01/11 11:08:20;;;;;;;11.07;7.80;;;5.50;78.70;;;;;;4980207;28;20042;-70
2022/01/11 11:11:12;;;;;;;14.73;9.70;;;5.60;78.80;;;;;;4980131;28;20452;-69
2022/01/11 11:13:46;;;;;;;12.10;8.50;;;5.60;78.00;;;;;;4980856;28;20045;-70
2022/01/11 11:16:15;;;;;;;11.43;8.27;;;5.60;78.50;;;;;;4983717;28;20042;-68
2022/01/11 11:18:47;;;;;;;14.40;7.82;;;5.70;78.60;;;;;;4982584;28;20573;-69
2022/01/11 11:21:23;;;;;;;10.07;7.43;;;5.70;78.60;;;;;;4981281;28;20031;-69
2022/01/11 11:23:59;;;;;;;12.30;7.72;;;5.70;78.20;;;;;;4982121;28;20466;-69
2022/01/11 11:26:36;;;;;;;10.27;7.30;;;5.70;77.80;;;;;;4981226;28;20129;-69
2022/01/11 11:29:03;;;;;;;11.23;7.10;;;5.80;77.40;;;;;;4982351;28;20037;-69
2022/01/11 11:31:29;;;;;;;10.25;6.78;;;5.80;77.70;;;;;;4981597;28;20117;-68
2022/01/11 11:33:55;;;;;;;10.43;6.57;;;5.80;77.40;;;;;;4981205;28;20026;-69
2022/01/11 11:36:22;;;;;;;8.93;6.20;;;5.80;77.10;;;;;;4981000;28;20038;-68
2022/01/11 11:38:54;;;;;;;8.57;5.75;;;5.80;76.90;;;;;;4978868;28;20501;-69
2022/01/11 11:41:20;;;;;;;8.63;5.97;;;5.70;76.60;;;;;;4981077;28;20149;-69
2022/01/11 11:44:05;;;;;;;9.77;6.57;;;5.70;76.90;;;;;;4981993;28;20041;-69
2022/01/11 11:46:59;;;;;;;9.02;5.97;;;5.70;75.30;;;;;;4980263;28;20036;-70
2022/01/11 11:49:54;;;;;;;12.07;5.97;;;5.70;75.30;;;;;;4981150;28;20035;-69
2022/01/11 11:52:27;;;;;;;8.90;5.68;;;5.70;75.30;;;;;;4980221;28;20055;-69
2022/01/11 11:54:52;;;;;;;9.50;6.10;;;5.70;76.00;;;;;;4979454;28;20030;-69
2022/01/11 11:57:21;;;;;;;7.95;6.20;;;5.70;76.20;;;;;;4980973;28;20117;-69
2022/01/11 12:00:03;;;;;;;9.00;6.53;;;5.70;76.10;;;;;;4976976;28;20042;-69
2022/01/11 12:02:34;;;;;;;7.50;6.10;;;5.70;75.80;;;;;;4978379;28;20473;-70
2022/01/11 12:05:00;;;;;;;8.50;6.28;;;5.70;75.70;;;;;;4981558;28;20065;-69
2022/01/11 12:07:38;;;;;;;12.07;6.22;;;5.80;75.90;;;;;;4980455;28;20038;-69
2022/01/11 12:10:08;;;;;;;8.50;6.47;;;5.80;75.00;;;;;;4980809;28;20570;-68
2022/01/11 12:12:45;;;;;;;8.73;6.55;;;5.70;75.30;;;;;;4976935;28;20392;-69
2022/01/11 12:15:23;;;;;;;7.82;5.18;;;5.70;74.80;;;;;;4981488;28;20046;-69
2022/01/11 12:18:08;;;;;;;8.48;5.90;;;5.70;74.70;;;;;;4982393;28;20084;-69
2022/01/11 12:20:51;;;;;;;7.00;5.63;;;5.80;75.10;;;;;;4980355;28;20031;-69
2022/01/11 12:23:38;;;;;;;11.63;6.32;;;5.80;74.70;;;;;;4981234;28;20060;-69
2022/01/11 12:26:20;;;;;;;9.02;5.97;;;5.80;74.70;;;;;;4979218;28;20027;-69
2022/01/11 12:29:11;;;;;;;8.80;5.50;;;5.80;74.30;;;;;;4980946;28;20041;-68
2022/01/11 12:31:57;;;;;;;9.10;5.40;;;5.80;74.10;;;;;;4982651;28;20092;-68
2022/01/11 12:34:50;;;;;;;7.70;5.50;;;5.80;74.00;;;;;;4980077;28;20030;-69
2022/01/11 12:37:23;;;;;;;9.07;5.93;;;5.90;73.90;;;;;;4980891;28;20157;-68
2022/01/11 12:40:09;;;;;;;8.13;5.85;;;5.80;74.30;;;;;;4980336;28;20502;-69
2022/01/11 12:42:36;;;;;;;9.20;6.15;;;5.80;73.60;;;;;;4981031;28;20434;-69
2022/01/11 12:47:44;;;;;;;7.45;5.53;;;5.80;74.40;;;;;;4978956;28;20034;-69
2022/01/11 12:50:17;;;;;;;9.23;5.45;;;5.90;73.60;;;;;;4980924;28;20045;-69
2022/01/11 12:52:44;;;;;;;7.30;5.25;;;5.90;75.10;;;;;;4980340;28;20035;-69